sensor_id;sensor_type;location;lat;lon;timestamp;temperature;humidity
4795;DHT22;2411;47.060;15.064;2023-06-14T00:01:36;13.40;29.00
4795;DHT22;2411;47.060;15.064;2023-06-14T00:04:05;13.30;25.50
4795;DHT22;2411;47.060;15.064;2023-06-14T00:06:35;13.40;28.00
4795;DHT22;2411;47.060;15.064;2023-06-14T00:09:02;13.40;23.50
4795;DHT22;2411;47.060;15.064;2023-06-14T00:11:32;13.40;23.80
4795;DHT22;2411;47.060;15.064;2023-06-14T00:14:00;13.40;26.50
4795;DHT22;2411;47.060;15.064;2023-06-14T00:16:27;13.30;24.90
4795;DHT22;2411;47.060;15.064;2023-06-14T00:18:54;13.30;28.60
4795;DHT22;2411;47.060;15.064;2023-06-14T00:21:22;13.30;30.50
4795;DHT22;2411;47.060;15.064;2023-06-14T00:23:49;13.30;35.90
4795;DHT22;2411;47.060;15.064;2023-06-14T00:26:17;13.30;44.80
4795;DHT22;2411;47.060;15.064;2023-06-14T00:28:44;13.30;43.00
4795;DHT22;2411;47.060;15.064;2023-06-14T00:31:12;13.40;46.60
4795;DHT22;2411;47.060;15.064;2023-06-14T00:33:39;13.40;46.00
4795;DHT22;2411;47.060;15.064;2023-06-14T00:36:07;13.30;46.70
4795;DHT22;2411;47.060;15.064;2023-06-14T00:38:34;13.20;45.70
4795;DHT22;2411;47.060;15.064;2023-06-14T00:41:02;13.10;32.40
4795;DHT22;2411;47.060;15.064;2023-06-14T00:43:29;13.00;29.00
4795;DHT22;2411;47.060;15.064;2023-06-14T00:45:56;13.00;41.20
4795;DHT22;2411;47.060;15.064;2023-06-14T00:48:24;13.10;48.80
4795;DHT22;2411;47.060;15.064;2023-06-14T00:50:52;13.10;49.20
4795;DHT22;2411;47.060;15.064;2023-06-14T00:53:20;13.00;39.20
4795;DHT22;2411;47.060;15.064;2023-06-14T00:55:50;13.00;41.90
4795;DHT22;2411;47.060;15.064;2023-06-14T00:58:17;13.00;41.20
4795;DHT22;2411;47.060;15.064;2023-06-14T01:00:44;13.10;38.60
4795;DHT22;2411;47.060;15.064;2023-06-14T01:03:12;13.10;37.90
4795;DHT22;2411;47.060;15.064;2023-06-14T01:05:41;13.00;37.30
4795;DHT22;2411;47.060;15.064;2023-06-14T01:08:50;13.00;42.30
4795;DHT22;2411;47.060;15.064;2023-06-14T01:11:23;13.10;52.10
4795;DHT22;2411;47.060;15.064;2023-06-14T01:13:56;13.10;47.80
4795;DHT22;2411;47.060;15.064;2023-06-14T01:16:24;13.10;49.90
4795;DHT22;2411;47.060;15.064;2023-06-14T01:18:53;13.10;52.90
4795;DHT22;2411;47.060;15.064;2023-06-14T01:21:25;13.10;43.00
4795;DHT22;2411;47.060;15.064;2023-06-14T01:23:53;13.10;41.20
4795;DHT22;2411;47.060;15.064;2023-06-14T01:26:22;13.00;45.40
4795;DHT22;2411;47.060;15.064;2023-06-14T01:28:50;13.00;41.70
4795;DHT22;2411;47.060;15.064;2023-06-14T01:31:21;13.00;42.70
4795;DHT22;2411;47.060;15.064;2023-06-14T01:33:50;13.00;37.00
4795;DHT22;2411;47.060;15.064;2023-06-14T01:36:22;13.00;39.40
4795;DHT22;2411;47.060;15.064;2023-06-14T01:38:52;13.00;32.50
4795;DHT22;2411;47.060;15.064;2023-06-14T01:41:20;13.00;35.20
4795;DHT22;2411;47.060;15.064;2023-06-14T01:43:49;12.90;37.20
4795;DHT22;2411;47.060;15.064;2023-06-14T01:46:17;12.90;37.90
4795;DHT22;2411;47.060;15.064;2023-06-14T01:48:44;13.00;50.70
4795;DHT22;2411;47.060;15.064;2023-06-14T01:51:12;12.90;38.10
4795;DHT22;2411;47.060;15.064;2023-06-14T01:53:39;12.90;43.00
4795;DHT22;2411;47.060;15.064;2023-06-14T01:56:07;12.90;35.70
4795;DHT22;2411;47.060;15.064;2023-06-14T01:58:34;12.90;41.20
4795;DHT22;2411;47.060;15.064;2023-06-14T02:01:02;13.00;53.70
4795;DHT22;2411;47.060;15.064;2023-06-14T02:03:29;13.00;53.10
4795;DHT22;2411;47.060;15.064;2023-06-14T02:05:57;13.00;54.20
4795;DHT22;2411;47.060;15.064;2023-06-14T02:08:24;12.90;46.30
4795;DHT22;2411;47.060;15.064;2023-06-14T02:10:52;13.00;53.70
4795;DHT22;2411;47.060;15.064;2023-06-14T02:13:19;13.00;51.30
4795;DHT22;2411;47.060;15.064;2023-06-14T02:15:46;13.00;49.00
4795;DHT22;2411;47.060;15.064;2023-06-14T02:18:15;13.00;51.50
4795;DHT22;2411;47.060;15.064;2023-06-14T02:20:43;12.80;56.80
4795;DHT22;2411;47.060;15.064;2023-06-14T02:23:10;12.90;56.70
4795;DHT22;2411;47.060;15.064;2023-06-14T02:25:38;12.80;61.50
4795;DHT22;2411;47.060;15.064;2023-06-14T02:28:06;12.90;71.60
4795;DHT22;2411;47.060;15.064;2023-06-14T02:30:34;12.80;65.00
4795;DHT22;2411;47.060;15.064;2023-06-14T02:33:01;12.80;64.00
4795;DHT22;2411;47.060;15.064;2023-06-14T02:35:30;12.80;69.40
4795;DHT22;2411;47.060;15.064;2023-06-14T02:37:57;12.90;72.80
4795;DHT22;2411;47.060;15.064;2023-06-14T02:40:25;12.90;75.70
4795;DHT22;2411;47.060;15.064;2023-06-14T02:42:52;13.00;83.00
4795;DHT22;2411;47.060;15.064;2023-06-14T02:45:20;13.00;82.50
4795;DHT22;2411;47.060;15.064;2023-06-14T02:47:48;13.00;76.20
4795;DHT22;2411;47.060;15.064;2023-06-14T02:50:15;13.00;77.30
4795;DHT22;2411;47.060;15.064;2023-06-14T02:52:44;13.00;67.10
4795;DHT22;2411;47.060;15.064;2023-06-14T02:55:12;12.90;56.30
4795;DHT22;2411;47.060;15.064;2023-06-14T02:57:39;12.90;56.10
4795;DHT22;2411;47.060;15.064;2023-06-14T03:00:07;12.90;59.40
4795;DHT22;2411;47.060;15.064;2023-06-14T03:02:41;12.90;69.20
4795;DHT22;2411;47.060;15.064;2023-06-14T03:05:10;12.90;63.50
4795;DHT22;2411;47.060;15.064;2023-06-14T03:07:37;12.90;74.80
4795;DHT22;2411;47.060;15.064;2023-06-14T03:10:09;12.90;73.10
4795;DHT22;2411;47.060;15.064;2023-06-14T03:12:36;12.90;81.40
4795;DHT22;2411;47.060;15.064;2023-06-14T03:15:04;12.90;78.90
4795;DHT22;2411;47.060;15.064;2023-06-14T03:17:31;12.90;73.30
4795;DHT22;2411;47.060;15.064;2023-06-14T03:20:01;12.90;68.60
4795;DHT22;2411;47.060;15.064;2023-06-14T03:22:28;12.90;66.70
4795;DHT22;2411;47.060;15.064;2023-06-14T03:24:55;12.80;77.00
4795;DHT22;2411;47.060;15.064;2023-06-14T03:27:22;12.80;68.30
4795;DHT22;2411;47.060;15.064;2023-06-14T03:29:50;12.90;63.10
4795;DHT22;2411;47.060;15.064;2023-06-14T03:32:17;12.90;68.30
4795;DHT22;2411;47.060;15.064;2023-06-14T03:34:44;12.90;68.10
4795;DHT22;2411;47.060;15.064;2023-06-14T03:37:12;12.80;74.90
4795;DHT22;2411;47.060;15.064;2023-06-14T03:39:39;12.90;80.00
4795;DHT22;2411;47.060;15.064;2023-06-14T03:42:13;12.90;81.80
4795;DHT22;2411;47.060;15.064;2023-06-14T03:44:41;13.00;80.70
4795;DHT22;2411;47.060;15.064;2023-06-14T03:47:08;13.00;80.80
4795;DHT22;2411;47.060;15.064;2023-06-14T03:49:36;13.00;80.50
4795;DHT22;2411;47.060;15.064;2023-06-14T03:52:04;13.10;83.00
4795;DHT22;2411;47.060;15.064;2023-06-14T03:54:32;13.10;76.90
4795;DHT22;2411;47.060;15.064;2023-06-14T03:57:02;13.10;71.70
4795;DHT22;2411;47.060;15.064;2023-06-14T03:59:30;13.20;79.20
4795;DHT22;2411;47.060;15.064;2023-06-14T04:01:57;13.30;85.20
4795;DHT22;2411;47.060;15.064;2023-06-14T04:04:24;13.30;79.20
4795;DHT22;2411;47.060;15.064;2023-06-14T04:06:56;13.40;81.20
4795;DHT22;2411;47.060;15.064;2023-06-14T04:09:25;13.40;67.80
4795;DHT22;2411;47.060;15.064;2023-06-14T04:11:55;13.40;56.70
4795;DHT22;2411;47.060;15.064;2023-06-14T04:14:23;13.40;54.60
4795;DHT22;2411;47.060;15.064;2023-06-14T04:16:50;13.50;51.50
4795;DHT22;2411;47.060;15.064;2023-06-14T04:19:18;13.50;49.10
4795;DHT22;2411;47.060;15.064;2023-06-14T04:21:45;13.50;50.70
4795;DHT22;2411;47.060;15.064;2023-06-14T04:24:12;13.50;47.40
4795;DHT22;2411;47.060;15.064;2023-06-14T04:26:42;13.50;52.10
4795;DHT22;2411;47.060;15.064;2023-06-14T04:29:12;13.50;57.80
4795;DHT22;2411;47.060;15.064;2023-06-14T04:31:43;13.60;48.60
4795;DHT22;2411;47.060;15.064;2023-06-14T04:34:12;13.60;52.30
4795;DHT22;2411;47.060;15.064;2023-06-14T04:36:44;13.70;54.70
4795;DHT22;2411;47.060;15.064;2023-06-14T04:39:16;13.70;54.20
4795;DHT22;2411;47.060;15.064;2023-06-14T04:42:05;13.60;42.90
4795;DHT22;2411;47.060;15.064;2023-06-14T04:44:52;13.60;50.30
4795;DHT22;2411;47.060;15.064;2023-06-14T04:47:41;13.60;58.70
4795;DHT22;2411;47.060;15.064;2023-06-14T04:50:10;13.60;58.00
4795;DHT22;2411;47.060;15.064;2023-06-14T04:52:37;13.70;64.80
4795;DHT22;2411;47.060;15.064;2023-06-14T04:55:05;13.70;67.60
4795;DHT22;2411;47.060;15.064;2023-06-14T04:57:33;13.70;75.10
4795;DHT22;2411;47.060;15.064;2023-06-14T05:00:02;13.70;72.00
4795;DHT22;2411;47.060;15.064;2023-06-14T05:02:31;13.70;65.80
4795;DHT22;2411;47.060;15.064;2023-06-14T05:04:59;13.70;63.00
4795;DHT22;2411;47.060;15.064;2023-06-14T05:07:47;13.70;70.90
4795;DHT22;2411;47.060;15.064;2023-06-14T05:10:14;13.70;79.40
4795;DHT22;2411;47.060;15.064;2023-06-14T05:13:00;13.70;76.80
4795;DHT22;2411;47.060;15.064;2023-06-14T05:15:27;13.70;80.50
4795;DHT22;2411;47.060;15.064;2023-06-14T05:17:56;13.70;88.80
4795;DHT22;2411;47.060;15.064;2023-06-14T05:20:24;13.70;80.40
4795;DHT22;2411;47.060;15.064;2023-06-14T05:22:54;13.80;86.70
4795;DHT22;2411;47.060;15.064;2023-06-14T05:25:21;13.80;78.80
4795;DHT22;2411;47.060;15.064;2023-06-14T05:27:48;13.80;81.90
4795;DHT22;2411;47.060;15.064;2023-06-14T05:30:16;13.80;82.00
4795;DHT22;2411;47.060;15.064;2023-06-14T05:32:43;13.80;76.10
4795;DHT22;2411;47.060;15.064;2023-06-14T05:35:14;13.80;74.30
4795;DHT22;2411;47.060;15.064;2023-06-14T05:38:00;13.80;81.60
4795;DHT22;2411;47.060;15.064;2023-06-14T05:40:36;13.80;82.20
4795;DHT22;2411;47.060;15.064;2023-06-14T05:43:04;13.80;71.30
4795;DHT22;2411;47.060;15.064;2023-06-14T05:45:49;13.80;67.10
4795;DHT22;2411;47.060;15.064;2023-06-14T05:48:16;13.80;65.40
4795;DHT22;2411;47.060;15.064;2023-06-14T05:50:44;13.80;63.50
4795;DHT22;2411;47.060;15.064;2023-06-14T05:53:29;13.80;63.00
4795;DHT22;2411;47.060;15.064;2023-06-14T05:55:56;13.90;61.30
4795;DHT22;2411;47.060;15.064;2023-06-14T05:58:24;13.90;70.10
4795;DHT22;2411;47.060;15.064;2023-06-14T06:01:09;14.00;74.20
4795;DHT22;2411;47.060;15.064;2023-06-14T06:03:37;14.00;76.80
4795;DHT22;2411;47.060;15.064;2023-06-14T06:06:23;14.00;72.10
4795;DHT22;2411;47.060;15.064;2023-06-14T06:08:50;14.00;63.30
4795;DHT22;2411;47.060;15.064;2023-06-14T06:11:36;14.00;69.50
4795;DHT22;2411;47.060;15.064;2023-06-14T06:14:36;14.00;80.70
4795;DHT22;2411;47.060;15.064;2023-06-14T06:17:22;14.10;80.00
4795;DHT22;2411;47.060;15.064;2023-06-14T06:19:50;14.10;78.50
4795;DHT22;2411;47.060;15.064;2023-06-14T06:22:17;14.10;82.80
4795;DHT22;2411;47.060;15.064;2023-06-14T06:24:44;14.20;77.50
4795;DHT22;2411;47.060;15.064;2023-06-14T06:27:12;14.30;69.70
4795;DHT22;2411;47.060;15.064;2023-06-14T06:29:41;14.40;73.60
4795;DHT22;2411;47.060;15.064;2023-06-14T06:32:09;14.40;70.40
4795;DHT22;2411;47.060;15.064;2023-06-14T06:34:36;14.40;63.70
4795;DHT22;2411;47.060;15.064;2023-06-14T06:37:04;14.40;82.10
4795;DHT22;2411;47.060;15.064;2023-06-14T06:39:31;14.50;68.40
4795;DHT22;2411;47.060;15.064;2023-06-14T06:42:17;14.60;61.60
4795;DHT22;2411;47.060;15.064;2023-06-14T06:44:44;14.50;56.40
4795;DHT22;2411;47.060;15.064;2023-06-14T06:47:11;14.50;54.90
4795;DHT22;2411;47.060;15.064;2023-06-14T06:49:39;14.60;54.70
4795;DHT22;2411;47.060;15.064;2023-06-14T06:52:24;14.60;59.90
4795;DHT22;2411;47.060;15.064;2023-06-14T06:55:01;14.60;58.60
4795;DHT22;2411;47.060;15.064;2023-06-14T06:57:29;14.70;62.90
4795;DHT22;2411;47.060;15.064;2023-06-14T07:00:15;14.70;58.40
4795;DHT22;2411;47.060;15.064;2023-06-14T07:03:01;14.70;49.30
4795;DHT22;2411;47.060;15.064;2023-06-14T07:05:32;14.80;47.60
4795;DHT22;2411;47.060;15.064;2023-06-14T07:08:00;14.70;37.60
4795;DHT22;2411;47.060;15.064;2023-06-14T07:10:45;14.70;38.70
4795;DHT22;2411;47.060;15.064;2023-06-14T07:13:31;14.80;34.80
4795;DHT22;2411;47.060;15.064;2023-06-14T07:16:17;14.80;53.00
4795;DHT22;2411;47.060;15.064;2023-06-14T07:18:45;14.70;29.20
4795;DHT22;2411;47.060;15.064;2023-06-14T07:21:12;14.70;38.70
4795;DHT22;2411;47.060;15.064;2023-06-14T07:23:39;14.60;45.00
4795;DHT22;2411;47.060;15.064;2023-06-14T07:26:07;14.60;44.60
4795;DHT22;2411;47.060;15.064;2023-06-14T07:28:34;14.50;52.50
4795;DHT22;2411;47.060;15.064;2023-06-14T07:31:02;14.40;53.50
4795;DHT22;2411;47.060;15.064;2023-06-14T07:33:47;14.20;47.00
4795;DHT22;2411;47.060;15.064;2023-06-14T07:36:33;14.20;38.00
4795;DHT22;2411;47.060;15.064;2023-06-14T07:39:00;14.20;25.80
4795;DHT22;2411;47.060;15.064;2023-06-14T07:41:30;14.10;23.10
4795;DHT22;2411;47.060;15.064;2023-06-14T07:43:57;14.00;16.00
4795;DHT22;2411;47.060;15.064;2023-06-14T07:46:25;13.90;14.40
4795;DHT22;2411;47.060;15.064;2023-06-14T07:48:55;13.70;18.90
4795;DHT22;2411;47.060;15.064;2023-06-14T07:51:41;13.50;15.90
4795;DHT22;2411;47.060;15.064;2023-06-14T07:54:10;13.40;16.30
4795;DHT22;2411;47.060;15.064;2023-06-14T07:56:37;13.40;33.20
4795;DHT22;2411;47.060;15.064;2023-06-14T07:59:04;13.50;30.90
4795;DHT22;2411;47.060;15.064;2023-06-14T08:01:51;13.60;36.50
4795;DHT22;2411;47.060;15.064;2023-06-14T08:04:37;13.60;34.90
4795;DHT22;2411;47.060;15.064;2023-06-14T08:07:23;13.50;31.70
4795;DHT22;2411;47.060;15.064;2023-06-14T08:09:51;13.50;42.30
4795;DHT22;2411;47.060;15.064;2023-06-14T08:12:18;13.50;41.30
4795;DHT22;2411;47.060;15.064;2023-06-14T08:14:47;13.50;26.90
4795;DHT22;2411;47.060;15.064;2023-06-14T08:17:27;13.50;31.30
4795;DHT22;2411;47.060;15.064;2023-06-14T08:19:54;13.40;26.50
4795;DHT22;2411;47.060;15.064;2023-06-14T08:22:25;13.40;25.40
4795;DHT22;2411;47.060;15.064;2023-06-14T08:24:53;13.30;28.10
4795;DHT22;2411;47.060;15.064;2023-06-14T08:27:21;13.30;26.30
4795;DHT22;2411;47.060;15.064;2023-06-14T08:29:49;13.30;20.80
4795;DHT22;2411;47.060;15.064;2023-06-14T08:32:17;13.30;24.20
4795;DHT22;2411;47.060;15.064;2023-06-14T08:34:44;13.40;27.80
4795;DHT22;2411;47.060;15.064;2023-06-14T08:37:30;13.40;29.10
4795;DHT22;2411;47.060;15.064;2023-06-14T08:39:57;13.40;25.30
4795;DHT22;2411;47.060;15.064;2023-06-14T08:42:25;13.60;26.00
4795;DHT22;2411;47.060;15.064;2023-06-14T08:44:58;13.60;31.60
4795;DHT22;2411;47.060;15.064;2023-06-14T08:47:27;13.70;30.40
4795;DHT22;2411;47.060;15.064;2023-06-14T08:49:57;13.80;38.10
4795;DHT22;2411;47.060;15.064;2023-06-14T08:52:28;13.90;44.40
4795;DHT22;2411;47.060;15.064;2023-06-14T08:54:57;14.00;40.50
4795;DHT22;2411;47.060;15.064;2023-06-14T08:57:27;14.20;39.50
4795;DHT22;2411;47.060;15.064;2023-06-14T08:59:57;14.50;33.00
4795;DHT22;2411;47.060;15.064;2023-06-14T09:02:35;14.60;30.00
4795;DHT22;2411;47.060;15.064;2023-06-14T09:05:02;14.70;27.00
4795;DHT22;2411;47.060;15.064;2023-06-14T09:07:30;14.60;22.50
4795;DHT22;2411;47.060;15.064;2023-06-14T09:10:11;14.70;23.10
4795;DHT22;2411;47.060;15.064;2023-06-14T09:12:39;14.70;21.70
4795;DHT22;2411;47.060;15.064;2023-06-14T09:15:07;14.80;20.70
4795;DHT22;2411;47.060;15.064;2023-06-14T09:17:36;14.90;22.40
4795;DHT22;2411;47.060;15.064;2023-06-14T09:20:05;15.10;19.70
4795;DHT22;2411;47.060;15.064;2023-06-14T09:22:45;15.40;21.90
4795;DHT22;2411;47.060;15.064;2023-06-14T09:25:13;15.70;24.20
4795;DHT22;2411;47.060;15.064;2023-06-14T09:27:59;15.70;22.10
4795;DHT22;2411;47.060;15.064;2023-06-14T09:30:45;15.90;22.40
4795;DHT22;2411;47.060;15.064;2023-06-14T09:33:17;15.90;21.50
4795;DHT22;2411;47.060;15.064;2023-06-14T09:35:51;15.70;21.00
4795;DHT22;2411;47.060;15.064;2023-06-14T09:38:19;15.90;21.20
4795;DHT22;2411;47.060;15.064;2023-06-14T09:40:46;16.10;20.40
4795;DHT22;2411;47.060;15.064;2023-06-14T09:43:32;16.00;18.40
4795;DHT22;2411;47.060;15.064;2023-06-14T09:46:19;15.80;18.00
4795;DHT22;2411;47.060;15.064;2023-06-14T09:48:47;15.60;17.50
4795;DHT22;2411;47.060;15.064;2023-06-14T09:51:15;15.80;19.90
4795;DHT22;2411;47.060;15.064;2023-06-14T09:53:46;15.90;17.20
4795;DHT22;2411;47.060;15.064;2023-06-14T09:56:28;16.00;16.90
4795;DHT22;2411;47.060;15.064;2023-06-14T09:58:57;16.10;18.50
4795;DHT22;2411;47.060;15.064;2023-06-14T10:01:34;16.40;18.00
4795;DHT22;2411;47.060;15.064;2023-06-14T10:04:06;16.20;14.30
4795;DHT22;2411;47.060;15.064;2023-06-14T10:06:40;16.20;15.10
4795;DHT22;2411;47.060;15.064;2023-06-14T10:09:10;16.40;16.30
4795;DHT22;2411;47.060;15.064;2023-06-14T10:11:38;16.30;12.50
4795;DHT22;2411;47.060;15.064;2023-06-14T10:14:12;16.40;15.00
4795;DHT22;2411;47.060;15.064;2023-06-14T10:17:04;16.30;11.40
4795;DHT22;2411;47.060;15.064;2023-06-14T10:22:49;16.60;14.40
4795;DHT22;2411;47.060;15.064;2023-06-14T10:25:30;17.10;17.20
4795;DHT22;2411;47.060;15.064;2023-06-14T10:28:20;17.50;16.90
4795;DHT22;2411;47.060;15.064;2023-06-14T10:36:26;17.50;16.00
4795;DHT22;2411;47.060;15.064;2023-06-14T10:39:09;17.70;18.00
4795;DHT22;2411;47.060;15.064;2023-06-14T10:41:39;17.30;13.30
4795;DHT22;2411;47.060;15.064;2023-06-14T10:46:40;18.20;17.10
4795;DHT22;2411;47.060;15.064;2023-06-14T10:49:11;17.90;15.70
4795;DHT22;2411;47.060;15.064;2023-06-14T10:51:40;17.50;11.90
4795;DHT22;2411;47.060;15.064;2023-06-14T10:54:20;17.70;15.00
4795;DHT22;2411;47.060;15.064;2023-06-14T10:56:52;17.70;13.40
4795;DHT22;2411;47.060;15.064;2023-06-14T10:59:21;17.70;12.70
4795;DHT22;2411;47.060;15.064;2023-06-14T11:04:50;17.30;11.60
4795;DHT22;2411;47.060;15.064;2023-06-14T11:13:00;17.40;12.20
4795;DHT22;2411;47.060;15.064;2023-06-14T11:15:31;17.50;11.40
4795;DHT22;2411;47.060;15.064;2023-06-14T11:18:07;17.50;10.90
4795;DHT22;2411;47.060;15.064;2023-06-14T11:20:35;17.40;12.50
4795;DHT22;2411;47.060;15.064;2023-06-14T11:23:04;17.30;11.30
4795;DHT22;2411;47.060;15.064;2023-06-14T11:25:31;17.50;11.40
4795;DHT22;2411;47.060;15.064;2023-06-14T11:27:59;17.20;11.00
4795;DHT22;2411;47.060;15.064;2023-06-14T11:30:26;17.10;9.40
4795;DHT22;2411;47.060;15.064;2023-06-14T11:32:54;17.00;10.20
4795;DHT22;2411;47.060;15.064;2023-06-14T11:35:25;17.10;8.60
4795;DHT22;2411;47.060;15.064;2023-06-14T11:37:57;17.00;8.90
4795;DHT22;2411;47.060;15.064;2023-06-14T11:40:25;17.30;9.70
4795;DHT22;2411;47.060;15.064;2023-06-14T11:42:59;17.60;12.40
4795;DHT22;2411;47.060;15.064;2023-06-14T11:45:29;17.90;14.20
4795;DHT22;2411;47.060;15.064;2023-06-14T11:48:00;18.10;15.50
4795;DHT22;2411;47.060;15.064;2023-06-14T11:50:28;18.20;14.70
4795;DHT22;2411;47.060;15.064;2023-06-14T11:52:55;18.10;11.30
4795;DHT22;2411;47.060;15.064;2023-06-14T11:55:24;17.80;12.00
4795;DHT22;2411;47.060;15.064;2023-06-14T11:57:54;17.50;8.80
4795;DHT22;2411;47.060;15.064;2023-06-14T12:00:25;16.90;7.90
4795;DHT22;2411;47.060;15.064;2023-06-14T12:02:56;17.10;9.50
4795;DHT22;2411;47.060;15.064;2023-06-14T12:05:25;17.10;11.10
4795;DHT22;2411;47.060;15.064;2023-06-14T12:07:59;17.00;10.00
4795;DHT22;2411;47.060;15.064;2023-06-14T12:10:28;17.20;10.60
4795;DHT22;2411;47.060;15.064;2023-06-14T12:12:59;17.00;8.70
4795;DHT22;2411;47.060;15.064;2023-06-14T12:15:29;16.90;8.50
4795;DHT22;2411;47.060;15.064;2023-06-14T12:17:58;16.90;7.80
4795;DHT22;2411;47.060;15.064;2023-06-14T12:20:29;16.80;22.30
4795;DHT22;2411;47.060;15.064;2023-06-14T12:22:59;16.60;7.30
4795;DHT22;2411;47.060;15.064;2023-06-14T12:25:32;16.70;8.80
4795;DHT22;2411;47.060;15.064;2023-06-14T12:28:08;17.10;12.60
4795;DHT22;2411;47.060;15.064;2023-06-14T12:30:36;17.10;10.40
4795;DHT22;2411;47.060;15.064;2023-06-14T12:33:04;17.00;8.80
4795;DHT22;2411;47.060;15.064;2023-06-14T12:35:33;17.00;7.30
4795;DHT22;2411;47.060;15.064;2023-06-14T12:38:00;17.00;8.40
4795;DHT22;2411;47.060;15.064;2023-06-14T12:40:27;17.30;11.70
4795;DHT22;2411;47.060;15.064;2023-06-14T12:42:55;17.50;14.30
4795;DHT22;2411;47.060;15.064;2023-06-14T12:45:22;17.60;12.80
4795;DHT22;2411;47.060;15.064;2023-06-14T12:47:50;17.50;10.60
4795;DHT22;2411;47.060;15.064;2023-06-14T12:50:19;17.10;8.60
4795;DHT22;2411;47.060;15.064;2023-06-14T12:52:50;17.10;8.20
4795;DHT22;2411;47.060;15.064;2023-06-14T12:55:17;17.50;10.70
4795;DHT22;2411;47.060;15.064;2023-06-14T12:57:46;17.40;9.50
4795;DHT22;2411;47.060;15.064;2023-06-14T13:00:16;17.50;11.20
4795;DHT22;2411;47.060;15.064;2023-06-14T13:02:44;17.30;12.80
4795;DHT22;2411;47.060;15.064;2023-06-14T13:05:12;17.10;11.50
4795;DHT22;2411;47.060;15.064;2023-06-14T13:07:39;16.80;9.60
4795;DHT22;2411;47.060;15.064;2023-06-14T13:10:07;17.00;10.70
4795;DHT22;2411;47.060;15.064;2023-06-14T13:12:34;17.20;11.30
4795;DHT22;2411;47.060;15.064;2023-06-14T13:15:02;17.40;13.00
4795;DHT22;2411;47.060;15.064;2023-06-14T13:17:29;17.40;11.40
4795;DHT22;2411;47.060;15.064;2023-06-14T13:19:57;17.20;10.90
4795;DHT22;2411;47.060;15.064;2023-06-14T13:22:25;17.40;11.40
4795;DHT22;2411;47.060;15.064;2023-06-14T13:24:52;17.10;8.00
4795;DHT22;2411;47.060;15.064;2023-06-14T13:27:19;17.10;8.70
4795;DHT22;2411;47.060;15.064;2023-06-14T13:29:47;17.40;16.40
4795;DHT22;2411;47.060;15.064;2023-06-14T13:32:14;17.60;12.90
4795;DHT22;2411;47.060;15.064;2023-06-14T13:34:42;17.40;9.10
4795;DHT22;2411;47.060;15.064;2023-06-14T13:37:09;17.20;8.70
4795;DHT22;2411;47.060;15.064;2023-06-14T13:39:36;17.20;9.70
4795;DHT22;2411;47.060;15.064;2023-06-14T13:42:05;17.20;10.20
4795;DHT22;2411;47.060;15.064;2023-06-14T13:44:32;17.40;10.50
4795;DHT22;2411;47.060;15.064;2023-06-14T13:47:00;17.50;10.40
4795;DHT22;2411;47.060;15.064;2023-06-14T13:49:27;17.30;10.30
4795;DHT22;2411;47.060;15.064;2023-06-14T13:51:54;17.20;10.20
4795;DHT22;2411;47.060;15.064;2023-06-14T13:54:22;17.30;11.30
4795;DHT22;2411;47.060;15.064;2023-06-14T13:56:49;17.40;11.50
4795;DHT22;2411;47.060;15.064;2023-06-14T13:59:16;17.20;9.50
4795;DHT22;2411;47.060;15.064;2023-06-14T14:01:44;17.30;13.20
4795;DHT22;2411;47.060;15.064;2023-06-14T14:04:11;17.50;15.00
4795;DHT22;2411;47.060;15.064;2023-06-14T14:06:39;17.50;13.00
4795;DHT22;2411;47.060;15.064;2023-06-14T14:09:08;17.60;14.30
4795;DHT22;2411;47.060;15.064;2023-06-14T14:11:36;17.60;12.70
4795;DHT22;2411;47.060;15.064;2023-06-14T14:14:03;17.80;11.50
4795;DHT22;2411;47.060;15.064;2023-06-14T14:16:32;17.60;10.00
4795;DHT22;2411;47.060;15.064;2023-06-14T14:19:00;17.60;12.10
4795;DHT22;2411;47.060;15.064;2023-06-14T14:21:28;17.70;12.70
4795;DHT22;2411;47.060;15.064;2023-06-14T14:23:55;17.80;14.60
4795;DHT22;2411;47.060;15.064;2023-06-14T14:26:23;18.00;14.80
4795;DHT22;2411;47.060;15.064;2023-06-14T14:28:51;17.90;12.80
4795;DHT22;2411;47.060;15.064;2023-06-14T14:31:19;17.90;13.40
4795;DHT22;2411;47.060;15.064;2023-06-14T14:33:46;18.10;13.60
4795;DHT22;2411;47.060;15.064;2023-06-14T14:36:13;18.40;15.90
4795;DHT22;2411;47.060;15.064;2023-06-14T14:38:41;18.80;17.80
4795;DHT22;2411;47.060;15.064;2023-06-14T14:41:08;18.90;15.00
4795;DHT22;2411;47.060;15.064;2023-06-14T14:43:35;18.50;13.70
4795;DHT22;2411;47.060;15.064;2023-06-14T14:46:02;18.80;15.00
4795;DHT22;2411;47.060;15.064;2023-06-14T14:48:30;19.30;16.60
4795;DHT22;2411;47.060;15.064;2023-06-14T14:50:57;19.40;16.20
4795;DHT22;2411;47.060;15.064;2023-06-14T14:53:24;19.70;19.10
4795;DHT22;2411;47.060;15.064;2023-06-14T14:55:52;19.60;16.50
4795;DHT22;2411;47.060;15.064;2023-06-14T14:58:19;19.20;13.90
4795;DHT22;2411;47.060;15.064;2023-06-14T15:00:47;19.10;14.10
4795;DHT22;2411;47.060;15.064;2023-06-14T15:03:14;19.40;16.50
4795;DHT22;2411;47.060;15.064;2023-06-14T15:05:42;19.80;18.90
4795;DHT22;2411;47.060;15.064;2023-06-14T15:08:09;19.80;15.90
4795;DHT22;2411;47.060;15.064;2023-06-14T15:10:40;19.50;14.40
4795;DHT22;2411;47.060;15.064;2023-06-14T15:13:11;19.70;15.20
4795;DHT22;2411;47.060;15.064;2023-06-14T15:15:38;19.60;14.20
4795;DHT22;2411;47.060;15.064;2023-06-14T15:18:05;19.40;12.10
4795;DHT22;2411;47.060;15.064;2023-06-14T15:20:33;19.10;11.60
4795;DHT22;2411;47.060;15.064;2023-06-14T15:23:01;19.00;12.00
4795;DHT22;2411;47.060;15.064;2023-06-14T15:25:29;19.20;13.70
4795;DHT22;2411;47.060;15.064;2023-06-14T15:27:57;19.50;13.20
4795;DHT22;2411;47.060;15.064;2023-06-14T15:30:25;19.60;14.90
4795;DHT22;2411;47.060;15.064;2023-06-14T15:32:52;19.80;14.90
4795;DHT22;2411;47.060;15.064;2023-06-14T15:35:19;20.10;17.30
4795;DHT22;2411;47.060;15.064;2023-06-14T15:37:47;20.00;14.90
4795;DHT22;2411;47.060;15.064;2023-06-14T15:40:16;20.40;17.90
4795;DHT22;2411;47.060;15.064;2023-06-14T15:42:44;20.40;17.50
4795;DHT22;2411;47.060;15.064;2023-06-14T15:45:11;20.50;18.20
4795;DHT22;2411;47.060;15.064;2023-06-14T15:47:38;20.60;16.00
4795;DHT22;2411;47.060;15.064;2023-06-14T15:50:06;20.20;13.10
4795;DHT22;2411;47.060;15.064;2023-06-14T15:52:37;20.00;13.00
4795;DHT22;2411;47.060;15.064;2023-06-14T15:55:05;19.80;12.50
4795;DHT22;2411;47.060;15.064;2023-06-14T15:57:32;19.70;12.80
4795;DHT22;2411;47.060;15.064;2023-06-14T16:00:00;19.20;10.70
4795;DHT22;2411;47.060;15.064;2023-06-14T16:02:27;19.00;11.20
4795;DHT22;2411;47.060;15.064;2023-06-14T16:04:54;18.70;9.50
4795;DHT22;2411;47.060;15.064;2023-06-14T16:07:22;18.40;9.00
4795;DHT22;2411;47.060;15.064;2023-06-14T16:09:49;18.20;6.50
4795;DHT22;2411;47.060;15.064;2023-06-14T16:12:17;17.90;7.60
4795;DHT22;2411;47.060;15.064;2023-06-14T16:14:44;17.90;7.50
4795;DHT22;2411;47.060;15.064;2023-06-14T16:17:11;17.90;7.00
4795;DHT22;2411;47.060;15.064;2023-06-14T16:19:39;17.80;6.50
4795;DHT22;2411;47.060;15.064;2023-06-14T16:22:06;17.80;7.40
4795;DHT22;2411;47.060;15.064;2023-06-14T16:24:34;17.80;8.20
4795;DHT22;2411;47.060;15.064;2023-06-14T16:27:02;17.80;7.30